sensor_id;sensor_type;location;lat;lon;timestamp;P1;durP1;ratioP1;P2;durP2;ratioP2
18304;SDS011;9278;52.156;21.048;2023-05-07T00:01:22;7.00;;;4.17;;
18304;SDS011;9278;52.156;21.048;2023-05-07T00:03:51;6.40;;;3.93;;
18304;SDS011;9278;52.156;21.048;2023-05-07T00:06:19;6.13;;;3.38;;
18304;SDS011;9278;52.156;21.048;2023-05-07T00:08:49;7.93;;;4.00;;
18304;SDS011;9278;52.156;21.048;2023-05-07T00:11:17;6.38;;;4.00;;
18304;SDS011;9278;52.156;21.048;2023-05-07T00:13:47;9.45;;;4.15;;
18304;SDS011;9278;52.156;21.048;2023-05-07T00:16:16;8.18;;;4.47;;
18304;SDS011;9278;52.156;21.048;2023-05-07T00:18:45;7.75;;;4.28;;
18304;SDS011;9278;52.156;21.048;2023-05-07T00:21:13;7.45;;;4.47;;
18304;SDS011;9278;52.156;21.048;2023-05-07T00:23:42;8.32;;;4.05;;
18304;SDS011;9278;52.156;21.048;2023-05-07T00:26:10;8.05;;;4.20;;
18304;SDS011;9278;52.156;21.048;2023-05-07T00:28:41;6.47;;;4.07;;
18304;SDS011;9278;52.156;21.048;2023-05-07T00:31:11;8.57;;;4.20;;
18304;SDS011;9278;52.156;21.048;2023-05-07T00:33:39;7.97;;;4.20;;
18304;SDS011;9278;52.156;21.048;2023-05-07T00:36:07;9.93;;;4.40;;
18304;SDS011;9278;52.156;21.048;2023-05-07T00:38:36;12.00;;;4.43;;
18304;SDS011;9278;52.156;21.048;2023-05-07T00:41:04;8.23;;;4.73;;
18304;SDS011;9278;52.156;21.048;2023-05-07T00:43:33;8.65;;;4.05;;
18304;SDS011;9278;52.156;21.048;2023-05-07T00:46:01;8.47;;;4.03;;
18304;SDS011;9278;52.156;21.048;2023-05-07T00:48:31;8.03;;;4.70;;
18304;SDS011;9278;52.156;21.048;2023-05-07T00:51:00;7.63;;;4.43;;
18304;SDS011;9278;52.156;21.048;2023-05-07T00:53:29;8.23;;;4.30;;
18304;SDS011;9278;52.156;21.048;2023-05-07T00:55:58;7.90;;;4.53;;
18304;SDS011;9278;52.156;21.048;2023-05-07T00:58:27;6.93;;;4.13;;
18304;SDS011;9278;52.156;21.048;2023-05-07T01:00:55;8.83;;;4.20;;
18304;SDS011;9278;52.156;21.048;2023-05-07T01:03:24;8.93;;;4.37;;
18304;SDS011;9278;52.156;21.048;2023-05-07T01:05:54;11.70;;;4.70;;
18304;SDS011;9278;52.156;21.048;2023-05-07T01:08:25;6.93;;;4.30;;
18304;SDS011;9278;52.156;21.048;2023-05-07T01:10:55;9.00;;;4.10;;
18304;SDS011;9278;52.156;21.048;2023-05-07T01:13:24;6.80;;;3.67;;
18304;SDS011;9278;52.156;21.048;2023-05-07T01:15:53;6.40;;;4.00;;
18304;SDS011;9278;52.156;21.048;2023-05-07T01:18:21;6.60;;;3.90;;
18304;SDS011;9278;52.156;21.048;2023-05-07T01:20:50;5.90;;;3.83;;
18304;SDS011;9278;52.156;21.048;2023-05-07T01:23:20;8.37;;;3.60;;
18304;SDS011;9278;52.156;21.048;2023-05-07T01:25:52;4.53;;;3.17;;
18304;SDS011;9278;52.156;21.048;2023-05-07T01:28:22;7.27;;;3.80;;
18304;SDS011;9278;52.156;21.048;2023-05-07T01:30:56;9.60;;;4.00;;
18304;SDS011;9278;52.156;21.048;2023-05-07T01:33:30;8.83;;;3.77;;
18304;SDS011;9278;52.156;21.048;2023-05-07T01:36:02;7.80;;;4.00;;
18304;SDS011;9278;52.156;21.048;2023-05-07T01:38:34;7.97;;;4.70;;
18304;SDS011;9278;52.156;21.048;2023-05-07T01:41:03;7.47;;;3.90;;
18304;SDS011;9278;52.156;21.048;2023-05-07T01:43:33;7.03;;;4.10;;
18304;SDS011;9278;52.156;21.048;2023-05-07T01:46:01;10.17;;;4.37;;
18304;SDS011;9278;52.156;21.048;2023-05-07T01:48:31;8.40;;;4.20;;
18304;SDS011;9278;52.156;21.048;2023-05-07T01:51:01;7.93;;;4.43;;
18304;SDS011;9278;52.156;21.048;2023-05-07T01:53:36;6.60;;;4.30;;
18304;SDS011;9278;52.156;21.048;2023-05-07T01:56:05;5.87;;;4.03;;
18304;SDS011;9278;52.156;21.048;2023-05-07T01:58:35;7.00;;;4.10;;
18304;SDS011;9278;52.156;21.048;2023-05-07T02:01:04;7.80;;;3.90;;
18304;SDS011;9278;52.156;21.048;2023-05-07T02:03:33;6.73;;;4.13;;
18304;SDS011;9278;52.156;21.048;2023-05-07T02:06:09;8.40;;;5.03;;
18304;SDS011;9278;52.156;21.048;2023-05-07T02:08:40;7.93;;;4.53;;
18304;SDS011;9278;52.156;21.048;2023-05-07T02:11:10;8.73;;;4.67;;
18304;SDS011;9278;52.156;21.048;2023-05-07T02:13:38;12.33;;;4.70;;
18304;SDS011;9278;52.156;21.048;2023-05-07T02:16:07;6.63;;;4.27;;
18304;SDS011;9278;52.156;21.048;2023-05-07T02:18:37;8.90;;;4.67;;
18304;SDS011;9278;52.156;21.048;2023-05-07T02:21:05;7.50;;;4.43;;
18304;SDS011;9278;52.156;21.048;2023-05-07T02:23:34;7.90;;;3.87;;
18304;SDS011;9278;52.156;21.048;2023-05-07T02:26:04;7.07;;;4.30;;
18304;SDS011;9278;52.156;21.048;2023-05-07T02:28:32;6.20;;;4.20;;
18304;SDS011;9278;52.156;21.048;2023-05-07T02:31:03;7.27;;;4.50;;
18304;SDS011;9278;52.156;21.048;2023-05-07T02:33:33;9.13;;;4.20;;
18304;SDS011;9278;52.156;21.048;2023-05-07T02:36:06;9.63;;;4.80;;
18304;SDS011;9278;52.156;21.048;2023-05-07T02:38:40;8.80;;;4.53;;
18304;SDS011;9278;52.156;21.048;2023-05-07T02:41:10;7.33;;;4.23;;
18304;SDS011;9278;52.156;21.048;2023-05-07T02:43:38;7.18;;;4.20;;
18304;SDS011;9278;52.156;21.048;2023-05-07T02:46:07;7.27;;;4.40;;
18304;SDS011;9278;52.156;21.048;2023-05-07T02:48:40;6.53;;;4.45;;
18304;SDS011;9278;52.156;21.048;2023-05-07T02:51:09;7.53;;;4.37;;
18304;SDS011;9278;52.156;21.048;2023-05-07T02:53:40;6.70;;;4.37;;
18304;SDS011;9278;52.156;21.048;2023-05-07T02:56:09;6.20;;;4.20;;
18304;SDS011;9278;52.156;21.048;2023-05-07T02:58:38;6.90;;;4.23;;
18304;SDS011;9278;52.156;21.048;2023-05-07T03:01:09;13.30;;;4.00;;
18304;SDS011;9278;52.156;21.048;2023-05-07T03:03:45;6.53;;;3.73;;
18304;SDS011;9278;52.156;21.048;2023-05-07T03:06:14;6.20;;;3.80;;
18304;SDS011;9278;52.156;21.048;2023-05-07T03:08:42;8.97;;;4.03;;
18304;SDS011;9278;52.156;21.048;2023-05-07T03:11:11;7.00;;;4.10;;
18304;SDS011;9278;52.156;21.048;2023-05-07T03:13:41;8.27;;;3.43;;
18304;SDS011;9278;52.156;21.048;2023-05-07T03:16:10;6.93;;;3.97;;
18304;SDS011;9278;52.156;21.048;2023-05-07T03:18:38;6.27;;;3.60;;
18304;SDS011;9278;52.156;21.048;2023-05-07T03:21:07;6.77;;;3.50;;
18304;SDS011;9278;52.156;21.048;2023-05-07T03:23:35;5.07;;;3.43;;
18304;SDS011;9278;52.156;21.048;2023-05-07T03:26:04;7.20;;;3.83;;
18304;SDS011;9278;52.156;21.048;2023-05-07T03:28:32;6.63;;;3.60;;
18304;SDS011;9278;52.156;21.048;2023-05-07T03:31:05;4.33;;;3.00;;
18304;SDS011;9278;52.156;21.048;2023-05-07T03:33:34;3.83;;;2.87;;
18304;SDS011;9278;52.156;21.048;2023-05-07T03:36:03;4.73;;;3.30;;
18304;SDS011;9278;52.156;21.048;2023-05-07T03:38:32;7.77;;;3.30;;
18304;SDS011;9278;52.156;21.048;2023-05-07T03:41:00;6.32;;;3.30;;
18304;SDS011;9278;52.156;21.048;2023-05-07T03:43:29;4.83;;;3.00;;
18304;SDS011;9278;52.156;21.048;2023-05-07T03:46:04;4.37;;;2.97;;
18304;SDS011;9278;52.156;21.048;2023-05-07T03:48:34;5.67;;;3.37;;
18304;SDS011;9278;52.156;21.048;2023-05-07T03:51:02;5.50;;;3.03;;
18304;SDS011;9278;52.156;21.048;2023-05-07T03:53:32;7.23;;;3.23;;
18304;SDS011;9278;52.156;21.048;2023-05-07T03:56:00;5.80;;;2.97;;
18304;SDS011;9278;52.156;21.048;2023-05-07T03:58:34;5.22;;;2.88;;
18304;SDS011;9278;52.156;21.048;2023-05-07T04:01:07;4.13;;;2.70;;
18304;SDS011;9278;52.156;21.048;2023-05-07T04:03:37;6.55;;;2.80;;
18304;SDS011;9278;52.156;21.048;2023-05-07T04:06:06;7.50;;;3.40;;
18304;SDS011;9278;52.156;21.048;2023-05-07T04:08:35;4.82;;;3.13;;
18304;SDS011;9278;52.156;21.048;2023-05-07T04:11:05;3.90;;;3.00;;
18304;SDS011;9278;52.156;21.048;2023-05-07T04:13:36;4.67;;;3.07;;
18304;SDS011;9278;52.156;21.048;2023-05-07T04:16:07;4.73;;;3.03;;
18304;SDS011;9278;52.156;21.048;2023-05-07T04:18:38;5.87;;;3.30;;
18304;SDS011;9278;52.156;21.048;2023-05-07T04:21:13;5.33;;;3.57;;
18304;SDS011;9278;52.156;21.048;2023-05-07T04:23:42;5.43;;;3.03;;
18304;SDS011;9278;52.156;21.048;2023-05-07T04:26:12;5.47;;;3.00;;
18304;SDS011;9278;52.156;21.048;2023-05-07T04:28:42;5.93;;;3.58;;
18304;SDS011;9278;52.156;21.048;2023-05-07T04:31:11;6.27;;;3.37;;
18304;SDS011;9278;52.156;21.048;2023-05-07T04:33:41;6.03;;;2.97;;
18304;SDS011;9278;52.156;21.048;2023-05-07T04:36:12;6.73;;;3.53;;
18304;SDS011;9278;52.156;21.048;2023-05-07T04:38:49;6.40;;;3.70;;
18304;SDS011;9278;52.156;21.048;2023-05-07T04:41:18;5.03;;;3.33;;
18304;SDS011;9278;52.156;21.048;2023-05-07T04:43:47;5.90;;;3.65;;
18304;SDS011;9278;52.156;21.048;2023-05-07T04:46:18;6.53;;;3.60;;
18304;SDS011;9278;52.156;21.048;2023-05-07T04:48:49;6.07;;;3.60;;
18304;SDS011;9278;52.156;21.048;2023-05-07T04:51:18;4.70;;;2.97;;
18304;SDS011;9278;52.156;21.048;2023-05-07T04:53:46;4.93;;;3.43;;
18304;SDS011;9278;52.156;21.048;2023-05-07T04:56:14;4.60;;;3.30;;
18304;SDS011;9278;52.156;21.048;2023-05-07T04:58:44;8.63;;;3.60;;
18304;SDS011;9278;52.156;21.048;2023-05-07T05:01:13;7.85;;;3.47;;
18304;SDS011;9278;52.156;21.048;2023-05-07T05:03:42;4.47;;;3.17;;
18304;SDS011;9278;52.156;21.048;2023-05-07T05:06:12;8.23;;;3.75;;
18304;SDS011;9278;52.156;21.048;2023-05-07T05:08:41;4.60;;;3.30;;
18304;SDS011;9278;52.156;21.048;2023-05-07T05:11:09;5.78;;;3.45;;
18304;SDS011;9278;52.156;21.048;2023-05-07T05:13:38;5.30;;;2.92;;
18304;SDS011;9278;52.156;21.048;2023-05-07T05:16:14;6.63;;;3.50;;
18304;SDS011;9278;52.156;21.048;2023-05-07T05:18:43;5.20;;;3.33;;
18304;SDS011;9278;52.156;21.048;2023-05-07T05:21:16;3.93;;;3.03;;
18304;SDS011;9278;52.156;21.048;2023-05-07T05:23:47;7.20;;;3.42;;
18304;SDS011;9278;52.156;21.048;2023-05-07T05:26:19;5.90;;;3.10;;
18304;SDS011;9278;52.156;21.048;2023-05-07T05:28:48;5.88;;;3.20;;
18304;SDS011;9278;52.156;21.048;2023-05-07T05:31:19;4.97;;;3.28;;
18304;SDS011;9278;52.156;21.048;2023-05-07T05:33:49;5.03;;;3.10;;
18304;SDS011;9278;52.156;21.048;2023-05-07T05:36:19;5.25;;;3.08;;
18304;SDS011;9278;52.156;21.048;2023-05-07T05:38:49;4.82;;;2.80;;
18304;SDS011;9278;52.156;21.048;2023-05-07T05:41:17;4.90;;;2.80;;
18304;SDS011;9278;52.156;21.048;2023-05-07T05:43:47;4.63;;;2.50;;
18304;SDS011;9278;52.156;21.048;2023-05-07T05:46:17;3.38;;;2.28;;
18304;SDS011;9278;52.156;21.048;2023-05-07T05:48:48;3.80;;;2.33;;
18304;SDS011;9278;52.156;21.048;2023-05-07T05:51:16;3.95;;;2.17;;
18304;SDS011;9278;52.156;21.048;2023-05-07T05:53:46;6.53;;;2.30;;
18304;SDS011;9278;52.156;21.048;2023-05-07T05:56:14;2.72;;;2.10;;
18304;SDS011;9278;52.156;21.048;2023-05-07T05:58:43;4.35;;;2.67;;
18304;SDS011;9278;52.156;21.048;2023-05-07T06:01:12;3.55;;;2.35;;
18304;SDS011;9278;52.156;21.048;2023-05-07T06:03:40;4.43;;;2.25;;
18304;SDS011;9278;52.156;21.048;2023-05-07T06:06:12;3.63;;;2.28;;
18304;SDS011;9278;52.156;21.048;2023-05-07T06:08:44;3.65;;;2.40;;
18304;SDS011;9278;52.156;21.048;2023-05-07T06:11:17;3.78;;;2.15;;
18304;SDS011;9278;52.156;21.048;2023-05-07T06:13:46;4.57;;;2.55;;
18304;SDS011;9278;52.156;21.048;2023-05-07T06:16:14;4.30;;;2.10;;
18304;SDS011;9278;52.156;21.048;2023-05-07T06:18:43;4.35;;;2.28;;
18304;SDS011;9278;52.156;21.048;2023-05-07T06:21:14;3.28;;;1.90;;
18304;SDS011;9278;52.156;21.048;2023-05-07T06:23:44;3.45;;;2.40;;
18304;SDS011;9278;52.156;21.048;2023-05-07T06:26:13;2.95;;;2.25;;
18304;SDS011;9278;52.156;21.048;2023-05-07T06:28:45;2.67;;;2.15;;
18304;SDS011;9278;52.156;21.048;2023-05-07T06:31:16;4.65;;;2.20;;
18304;SDS011;9278;52.156;21.048;2023-05-07T06:34:02;3.45;;;2.00;;
18304;SDS011;9278;52.156;21.048;2023-05-07T06:36:35;3.70;;;2.33;;
18304;SDS011;9278;52.156;21.048;2023-05-07T06:39:25;2.42;;;1.92;;
18304;SDS011;9278;52.156;21.048;2023-05-07T06:41:53;4.68;;;2.20;;
18304;SDS011;9278;52.156;21.048;2023-05-07T06:44:26;2.45;;;2.00;;
18304;SDS011;9278;52.156;21.048;2023-05-07T06:47:04;2.53;;;2.03;;
18304;SDS011;9278;52.156;21.048;2023-05-07T06:49:34;2.80;;;2.10;;
18304;SDS011;9278;52.156;21.048;2023-05-07T06:52:02;3.30;;;2.10;;
18304;SDS011;9278;52.156;21.048;2023-05-07T06:54:33;3.22;;;1.90;;
18304;SDS011;9278;52.156;21.048;2023-05-07T06:57:01;7.53;;;2.38;;
18304;SDS011;9278;52.156;21.048;2023-05-07T06:59:30;2.67;;;2.10;;
18304;SDS011;9278;52.156;21.048;2023-05-07T07:01:58;3.03;;;1.92;;
18304;SDS011;9278;52.156;21.048;2023-05-07T07:04:27;6.35;;;2.03;;
18304;SDS011;9278;52.156;21.048;2023-05-07T07:07:03;3.50;;;2.00;;
18304;SDS011;9278;52.156;21.048;2023-05-07T07:09:32;5.35;;;2.83;;
18304;SDS011;9278;52.156;21.048;2023-05-07T07:12:02;5.18;;;2.30;;
18304;SDS011;9278;52.156;21.048;2023-05-07T07:14:31;3.42;;;1.90;;
18304;SDS011;9278;52.156;21.048;2023-05-07T07:17:00;7.43;;;2.17;;
18304;SDS011;9278;52.156;21.048;2023-05-07T07:19:28;5.38;;;2.10;;
18304;SDS011;9278;52.156;21.048;2023-05-07T07:21:57;3.63;;;2.20;;
18304;SDS011;9278;52.156;21.048;2023-05-07T07:24:26;3.25;;;2.00;;
18304;SDS011;9278;52.156;21.048;2023-05-07T07:26:59;4.15;;;2.10;;
18304;SDS011;9278;52.156;21.048;2023-05-07T07:29:28;3.70;;;2.13;;
18304;SDS011;9278;52.156;21.048;2023-05-07T07:31:56;2.95;;;2.10;;
18304;SDS011;9278;52.156;21.048;2023-05-07T07:34:25;4.07;;;1.85;;
18304;SDS011;9278;52.156;21.048;2023-05-07T07:36:53;2.90;;;1.80;;
18304;SDS011;9278;52.156;21.048;2023-05-07T07:39:22;2.28;;;1.73;;
18304;SDS011;9278;52.156;21.048;2023-05-07T07:41:54;3.13;;;1.80;;
18304;SDS011;9278;52.156;21.048;2023-05-07T07:44:25;2.53;;;1.90;;
18304;SDS011;9278;52.156;21.048;2023-05-07T07:46:57;3.83;;;2.25;;
18304;SDS011;9278;52.156;21.048;2023-05-07T07:49:26;4.18;;;1.80;;
18304;SDS011;9278;52.156;21.048;2023-05-07T07:51:57;3.65;;;2.17;;
18304;SDS011;9278;52.156;21.048;2023-05-07T07:54:26;3.33;;;2.08;;
18304;SDS011;9278;52.156;21.048;2023-05-07T07:56:56;6.22;;;2.15;;
18304;SDS011;9278;52.156;21.048;2023-05-07T07:59:25;5.75;;;1.73;;
18304;SDS011;9278;52.156;21.048;2023-05-07T08:01:54;2.53;;;1.67;;
18304;SDS011;9278;52.156;21.048;2023-05-07T08:04:26;3.45;;;2.30;;
18304;SDS011;9278;52.156;21.048;2023-05-07T08:06:56;2.35;;;1.70;;
18304;SDS011;9278;52.156;21.048;2023-05-07T08:09:24;3.33;;;2.10;;
18304;SDS011;9278;52.156;21.048;2023-05-07T08:11:54;3.03;;;1.88;;
18304;SDS011;9278;52.156;21.048;2023-05-07T08:14:22;2.88;;;1.80;;
18304;SDS011;9278;52.156;21.048;2023-05-07T08:16:51;5.60;;;2.28;;
18304;SDS011;9278;52.156;21.048;2023-05-07T08:19:21;3.70;;;1.92;;
18304;SDS011;9278;52.156;21.048;2023-05-07T08:21:49;7.20;;;1.90;;
18304;SDS011;9278;52.156;21.048;2023-05-07T08:24:19;2.95;;;2.00;;
18304;SDS011;9278;52.156;21.048;2023-05-07T08:26:48;9.25;;;2.00;;
18304;SDS011;9278;52.156;21.048;2023-05-07T08:29:17;3.45;;;2.05;;
18304;SDS011;9278;52.156;21.048;2023-05-07T08:31:45;6.75;;;1.90;;
18304;SDS011;9278;52.156;21.048;2023-05-07T08:34:15;3.45;;;1.88;;
18304;SDS011;9278;52.156;21.048;2023-05-07T08:36:45;2.97;;;1.83;;
18304;SDS011;9278;52.156;21.048;2023-05-07T08:39:18;3.67;;;2.20;;
18304;SDS011;9278;52.156;21.048;2023-05-07T08:41:48;3.80;;;2.08;;
18304;SDS011;9278;52.156;21.048;2023-05-07T08:44:23;3.08;;;2.00;;
18304;SDS011;9278;52.156;21.048;2023-05-07T08:46:56;3.72;;;2.40;;
18304;SDS011;9278;52.156;21.048;2023-05-07T08:49:27;4.90;;;2.25;;
18304;SDS011;9278;52.156;21.048;2023-05-07T08:51:56;4.40;;;2.30;;
18304;SDS011;9278;52.156;21.048;2023-05-07T08:54:24;4.30;;;2.05;;
18304;SDS011;9278;52.156;21.048;2023-05-07T08:56:53;6.25;;;2.33;;
18304;SDS011;9278;52.156;21.048;2023-05-07T08:59:22;13.10;;;2.22;;
18304;SDS011;9278;52.156;21.048;2023-05-07T09:01:51;3.63;;;1.60;;
18304;SDS011;9278;52.156;21.048;2023-05-07T09:04:19;3.67;;;2.25;;
18304;SDS011;9278;52.156;21.048;2023-05-07T09:06:49;4.78;;;2.20;;
18304;SDS011;9278;52.156;21.048;2023-05-07T09:09:21;5.70;;;2.20;;
18304;SDS011;9278;52.156;21.048;2023-05-07T09:11:56;3.25;;;1.90;;
18304;SDS011;9278;52.156;21.048;2023-05-07T09:14:28;8.43;;;2.95;;
18304;SDS011;9278;52.156;21.048;2023-05-07T09:16:57;4.78;;;1.70;;
18304;SDS011;9278;52.156;21.048;2023-05-07T09:19:26;3.70;;;1.73;;
18304;SDS011;9278;52.156;21.048;2023-05-07T09:22:00;2.85;;;2.03;;
18304;SDS011;9278;52.156;21.048;2023-05-07T09:24:39;2.42;;;1.80;;
18304;SDS011;9278;52.156;21.048;2023-05-07T09:27:10;4.15;;;1.85;;
18304;SDS011;9278;52.156;21.048;2023-05-07T09:29:42;3.67;;;1.70;;
18304;SDS011;9278;52.156;21.048;2023-05-07T09:32:12;2.88;;;1.60;;
18304;SDS011;9278;52.156;21.048;2023-05-07T09:34:43;2.50;;;1.48;;
18304;SDS011;9278;52.156;21.048;2023-05-07T09:37:17;4.32;;;1.92;;
18304;SDS011;9278;52.156;21.048;2023-05-07T09:39:46;2.63;;;1.98;;
18304;SDS011;9278;52.156;21.048;2023-05-07T09:42:23;4.20;;;2.17;;
18304;SDS011;9278;52.156;21.048;2023-05-07T09:44:56;4.68;;;1.80;;
18304;SDS011;9278;52.156;21.048;2023-05-07T09:47:28;4.20;;;1.90;;
18304;SDS011;9278;52.156;21.048;2023-05-07T09:49:59;3.28;;;1.92;;
18304;SDS011;9278;52.156;21.048;2023-05-07T09:52:34;4.25;;;1.92;;
18304;SDS011;9278;52.156;21.048;2023-05-07T09:55:05;5.13;;;1.75;;
18304;SDS011;9278;52.156;21.048;2023-05-07T09:57:35;6.40;;;2.05;;
18304;SDS011;9278;52.156;21.048;2023-05-07T10:00:07;4.07;;;2.25;;
18304;SDS011;9278;52.156;21.048;2023-05-07T10:02:48;4.53;;;1.80;;
18304;SDS011;9278;52.156;21.048;2023-05-07T10:05:27;4.35;;;2.17;;
18304;SDS011;9278;52.156;21.048;2023-05-07T10:07:59;3.58;;;2.00;;
18304;SDS011;9278;52.156;21.048;2023-05-07T10:10:33;4.07;;;2.03;;
18304;SDS011;9278;52.156;21.048;2023-05-07T10:13:04;3.65;;;2.10;;
18304;SDS011;9278;52.156;21.048;2023-05-07T10:15:40;2.50;;;1.75;;
18304;SDS011;9278;52.156;21.048;2023-05-07T10:18:09;2.28;;;1.40;;
18304;SDS011;9278;52.156;21.048;2023-05-07T10:20:40;5.18;;;2.17;;
18304;SDS011;9278;52.156;21.048;2023-05-07T10:23:14;2.58;;;1.65;;
18304;SDS011;9278;52.156;21.048;2023-05-07T10:25:47;3.20;;;1.75;;
18304;SDS011;9278;52.156;21.048;2023-05-07T10:28:21;3.25;;;1.92;;
18304;SDS011;9278;52.156;21.048;2023-05-07T10:30:58;4.82;;;2.10;;
18304;SDS011;9278;52.156;21.048;2023-05-07T10:33:41;3.90;;;2.00;;
18304;SDS011;9278;52.156;21.048;2023-05-07T10:36:12;3.60;;;2.03;;
18304;SDS011;9278;52.156;21.048;2023-05-07T10:38:42;4.15;;;2.50;;
18304;SDS011;9278;52.156;21.048;2023-05-07T10:41:11;3.53;;;1.92;;
18304;SDS011;9278;52.156;21.048;2023-05-07T10:43:42;3.10;;;1.90;;
18304;SDS011;9278;52.156;21.048;2023-05-07T10:46:23;3.03;;;2.00;;
18304;SDS011;9278;52.156;21.048;2023-05-07T10:49:08;4.78;;;1.75;;
18304;SDS011;9278;52.156;21.048;2023-05-07T10:52:10;3.92;;;2.08;;
18304;SDS011;9278;52.156;21.048;2023-05-07T10:54:46;3.88;;;1.80;;
18304;SDS011;9278;52.156;21.048;2023-05-07T10:57:34;2.80;;;1.70;;
18304;SDS011;9278;52.156;21.048;2023-05-07T11:03:11;3.63;;;1.98;;
18304;SDS011;9278;52.156;21.048;2023-05-07T11:06:10;2.22;;;1.85;;
18304;SDS011;9278;52.156;21.048;2023-05-07T11:08:53;4.15;;;1.60;;
18304;SDS011;9278;52.156;21.048;2023-05-07T11:11:47;5.40;;;2.00;;
18304;SDS011;9278;52.156;21.048;2023-05-07T11:14:43;6.03;;;1.77;;
18304;SDS011;9278;52.156;21.048;2023-05-07T11:17:28;2.83;;;2.00;;
18304;SDS011;9278;52.156;21.048;2023-05-07T11:20:06;3.17;;;1.73;;
18304;SDS011;9278;52.156;21.048;2023-05-07T11:22:53;3.40;;;1.60;;
18304;SDS011;9278;52.156;21.048;2023-05-07T11:25:35;2.92;;;2.03;;
18304;SDS011;9278;52.156;21.048;2023-05-07T11:28:13;4.13;;;1.80;;
18304;SDS011;9278;52.156;21.048;2023-05-07T11:30:49;3.92;;;2.05;;
18304;SDS011;9278;52.156;21.048;2023-05-07T11:33:19;4.55;;;2.00;;
18304;SDS011;9278;52.156;21.048;2023-05-07T11:35:50;3.28;;;1.80;;
18304;SDS011;9278;52.156;21.048;2023-05-07T11:38:24;5.18;;;2.22;;
18304;SDS011;9278;52.156;21.048;2023-05-07T11:40:54;2.97;;;1.90;;
18304;SDS011;9278;52.156;21.048;2023-05-07T11:43:25;15.50;;;3.75;;
18304;SDS011;9278;52.156;21.048;2023-05-07T11:45:53;5.07;;;2.15;;
18304;SDS011;9278;52.156;21.048;2023-05-07T11:48:21;6.35;;;2.40;;
18304;SDS011;9278;52.156;21.048;2023-05-07T11:50:50;5.28;;;2.15;;
18304;SDS011;9278;52.156;21.048;2023-05-07T11:53:19;3.35;;;1.60;;
18304;SDS011;9278;52.156;21.048;2023-05-07T11:55:47;6.93;;;2.78;;
18304;SDS011;9278;52.156;21.048;2023-05-07T11:58:20;5.97;;;1.95;;
18304;SDS011;9278;52.156;21.048;2023-05-07T12:00:51;4.15;;;1.80;;
18304;SDS011;9278;52.156;21.048;2023-05-07T12:03:19;3.47;;;2.03;;
18304;SDS011;9278;52.156;21.048;2023-05-07T12:05:48;3.88;;;2.10;;
18304;SDS011;9278;52.156;21.048;2023-05-07T12:08:17;4.40;;;1.80;;
18304;SDS011;9278;52.156;21.048;2023-05-07T12:10:47;3.15;;;1.75;;
18304;SDS011;9278;52.156;21.048;2023-05-07T12:13:16;3.97;;;2.00;;
18304;SDS011;9278;52.156;21.048;2023-05-07T12:15:45;3.35;;;1.85;;
18304;SDS011;9278;52.156;21.048;2023-05-07T12:18:15;6.38;;;1.90;;
18304;SDS011;9278;52.156;21.048;2023-05-07T12:20:44;3.70;;;2.13;;
18304;SDS011;9278;52.156;21.048;2023-05-07T12:23:12;4.47;;;1.60;;
18304;SDS011;9278;52.156;21.048;2023-05-07T12:25:42;2.70;;;1.83;;
18304;SDS011;9278;52.156;21.048;2023-05-07T12:28:15;2.72;;;1.73;;
18304;SDS011;9278;52.156;21.048;2023-05-07T12:30:45;5.20;;;2.10;;
18304;SDS011;9278;52.156;21.048;2023-05-07T12:33:17;2.45;;;1.73;;
18304;SDS011;9278;52.156;21.048;2023-05-07T12:35:48;3.40;;;1.80;;
18304;SDS011;9278;52.156;21.048;2023-05-07T12:38:17;3.58;;;1.90;;
18304;SDS011;9278;52.156;21.048;2023-05-07T12:40:46;5.28;;;1.90;;
18304;SDS011;9278;52.156;21.048;2023-05-07T12:43:18;5.57;;;1.70;;
18304;SDS011;9278;52.156;21.048;2023-05-07T12:45:47;3.30;;;1.92;;
18304;SDS011;9278;52.156;21.048;2023-05-07T12:48:18;7.63;;;1.83;;
18304;SDS011;9278;52.156;21.048;2023-05-07T12:50:51;2.97;;;1.98;;
18304;SDS011;9278;52.156;21.048;2023-05-07T12:53:21;2.25;;;1.80;;
18304;SDS011;9278;52.156;21.048;2023-05-07T12:55:51;6.90;;;2.08;;
18304;SDS011;9278;52.156;21.048;2023-05-07T12:58:23;6.75;;;1.60;;
18304;SDS011;9278;52.156;21.048;2023-05-07T13:00:53;2.90;;;1.67;;
18304;SDS011;9278;52.156;21.048;2023-05-07T13:03:28;2.15;;;1.65;;
18304;SDS011;9278;52.156;21.048;2023-05-07T13:05:58;3.92;;;2.08;;
18304;SDS011;9278;52.156;21.048;2023-05-07T13:08:28;5.85;;;2.20;;
18304;SDS011;9278;52.156;21.048;2023-05-07T13:10:58;5.30;;;1.85;;
18304;SDS011;9278;52.156;21.048;2023-05-07T13:13:29;3.00;;;1.58;;
18304;SDS011;9278;52.156;21.048;2023-05-07T13:15:58;2.72;;;1.80;;
18304;SDS011;9278;52.156;21.048;2023-05-07T13:18:29;2.67;;;1.70;;
18304;SDS011;9278;52.156;21.048;2023-05-07T13:20:59;4.05;;;2.30;;
18304;SDS011;9278;52.156;21.048;2023-05-07T13:23:28;4.35;;;1.70;;
18304;SDS011;9278;52.156;21.048;2023-05-07T13:25:56;5.55;;;1.80;;
18304;SDS011;9278;52.156;21.048;2023-05-07T13:28:26;3.33;;;1.70;;
18304;SDS011;9278;52.156;21.048;2023-05-07T13:30:54;4.25;;;1.80;;
18304;SDS011;9278;52.156;21.048;2023-05-07T13:33:23;5.03;;;1.85;;
18304;SDS011;9278;52.156;21.048;2023-05-07T13:35:52;3.70;;;1.98;;
18304;SDS011;9278;52.156;21.048;2023-05-07T13:38:23;4.68;;;1.67;;
18304;SDS011;9278;52.156;21.048;2023-05-07T13:40:51;3.47;;;2.10;;
18304;SDS011;9278;52.156;21.048;2023-05-07T13:43:19;1.77;;;1.30;;
18304;SDS011;9278;52.156;21.048;2023-05-07T13:45:48;2.55;;;1.67;;
18304;SDS011;9278;52.156;21.048;2023-05-07T13:48:16;2.20;;;1.50;;
18304;SDS011;9278;52.156;21.048;2023-05-07T13:50:45;2.17;;;1.40;;
18304;SDS011;9278;52.156;21.048;2023-05-07T13:53:14;3.05;;;1.42;;
18304;SDS011;9278;52.156;21.048;2023-05-07T13:55:44;2.75;;;1.73;;
18304;SDS011;9278;52.156;21.048;2023-05-07T13:58:13;3.42;;;1.83;;
18304;SDS011;9278;52.156;21.048;2023-05-07T14:00:41;2.03;;;1.50;;
18304;SDS011;9278;52.156;21.048;2023-05-07T14:03:10;4.65;;;1.67;;
18304;SDS011;9278;52.156;21.048;2023-05-07T14:05:38;3.38;;;1.80;;
18304;SDS011;9278;52.156;21.048;2023-05-07T14:08:07;2.95;;;1.70;;
18304;SDS011;9278;52.156;21.048;2023-05-07T14:10:36;2.20;;;1.30;;
18304;SDS011;9278;52.156;21.048;2023-05-07T14:13:04;2.75;;;1.75;;
18304;SDS011;9278;52.156;21.048;2023-05-07T14:15:32;2.38;;;1.60;;
18304;SDS011;9278;52.156;21.048;2023-05-07T14:18:01;4.43;;;1.77;;
18304;SDS011;9278;52.156;21.048;2023-05-07T14:20:29;2.88;;;1.70;;
18304;SDS011;9278;52.156;21.048;2023-05-07T14:22:57;2.72;;;1.70;;
18304;SDS011;9278;52.156;21.048;2023-05-07T14:25:25;3.60;;;1.40;;
18304;SDS011;9278;52.156;21.048;2023-05-07T14:27:55;2.60;;;1.77;;
18304;SDS011;9278;52.156;21.048;2023-05-07T14:30:23;2.75;;;1.73;;
18304;SDS011;9278;52.156;21.048;2023-05-07T14:32:52;6.65;;;1.73;;
18304;SDS011;9278;52.156;21.048;2023-05-07T14:35:20;3.63;;;1.80;;
18304;SDS011;9278;52.156;21.048;2023-05-07T14:37:48;3.20;;;1.55;;
18304;SDS011;9278;52.156;21.048;2023-05-07T14:40:17;6.65;;;3.35;;
18304;SDS011;9278;52.156;21.048;2023-05-07T14:42:45;3.17;;;1.60;;
18304;SDS011;9278;52.156;21.048;2023-05-07T14:45:15;3.33;;;2.05;;
18304;SDS011;9278;52.156;21.048;2023-05-07T14:47:43;2.38;;;1.65;;
18304;SDS011;9278;52.156;21.048;2023-05-07T14:50:11;2.80;;;1.50;;
18304;SDS011;9278;52.156;21.048;2023-05-07T14:52:39;2.20;;;1.40;;
18304;SDS011;9278;52.156;21.048;2023-05-07T14:55:08;8.00;;;2.50;;
18304;SDS011;9278;52.156;21.048;2023-05-07T14:57:37;2.13;;;1.40;;
18304;SDS011;9278;52.156;21.048;2023-05-07T15:00:06;2.88;;;1.80;;
18304;SDS011;9278;52.156;21.048;2023-05-07T15:02:37;3.42;;;1.75;;
18304;SDS011;9278;52.156;21.048;2023-05-07T15:05:06;4.13;;;1.45;;
18304;SDS011;9278;52.156;21.048;2023-05-07T15:07:34;2.53;;;1.80;;
18304;SDS011;9278;52.156;21.048;2023-05-07T15:10:03;4.72;;;1.60;;
18304;SDS011;9278;52.156;21.048;2023-05-07T15:12:32;4.35;;;1.50;;